createdAt,value
2023-02-14T12:57:40.744Z,26.75
2023-02-14T13:00:14.810Z,27.67
2023-02-14T13:02:56.685Z,28.38
2023-02-14T13:05:54.954Z,27.23
2023-02-14T13:08:24.921Z,29.95
2023-02-14T13:11:01.172Z,23.23
2023-02-14T13:13:40.452Z,23.60
2023-02-14T13:16:27.685Z,24.65
2023-02-14T13:19:13.917Z,29.20
2023-02-14T13:21:41.435Z,26.15
2023-02-14T13:24:22.292Z,25.58
2023-02-14T13:26:54.794Z,24.95
2023-02-14T13:29:24.482Z,29.87
2023-02-14T13:31:54.691Z,24.25
2023-02-14T13:34:32.820Z,26.15
2023-02-14T13:37:01.425Z,27.73
2023-02-14T13:39:43.596Z,29.00
2023-02-14T13:42:11.291Z,25.62
2023-02-14T13:44:46.653Z,25.23
2023-02-14T13:47:17.855Z,26.55
2023-02-14T13:50:01.318Z,22.10
2023-02-14T13:52:46.666Z,25.98
2023-02-14T13:55:23.109Z,25.17
2023-02-14T13:58:13.014Z,20.57
2023-02-14T14:00:47.174Z,26.02
2023-02-14T14:03:28.088Z,24.12
2023-02-14T14:06:09.162Z,26.20
2023-02-14T14:08:43.151Z,25.70
2023-02-14T14:11:22.313Z,28.98
2023-02-14T14:14:02.137Z,27.23
2023-02-14T14:16:30.751Z,26.73
2023-02-14T14:19:09.571Z,28.27
2023-02-14T14:22:04.425Z,24.33
2023-02-14T14:24:39.620Z,28.52
2023-02-14T14:27:25.581Z,28.70
2023-02-14T14:30:04.126Z,26.60
2023-02-14T14:32:37.006Z,27.70
2023-02-14T14:35:23.023Z,31.00
2023-02-14T14:37:53.134Z,32.60
2023-02-14T14:40:26.328Z,27.48
2023-02-14T14:42:53.669Z,29.77
2023-02-14T14:45:26.118Z,27.37
2023-02-14T14:47:55.610Z,25.55
2023-02-14T14:50:24.956Z,27.62
2023-02-14T14:53:14.677Z,22.13
2023-02-14T14:55:44.538Z,29.40
2023-02-14T14:58:32.744Z,24.25
2023-02-14T15:00:59.949Z,27.50
2023-02-14T15:03:29.427Z,23.17
2023-02-14T15:06:22.209Z,21.55
2023-02-14T15:08:52.135Z,24.73
2023-02-14T15:11:42.240Z,29.37
2023-02-14T15:14:15.647Z,26.98
2023-02-14T15:16:50.906Z,26.73
2023-02-14T15:19:34.405Z,23.85
2023-02-14T15:22:02.778Z,25.45
2023-02-14T15:24:31.696Z,27.67
2023-02-14T15:26:58.588Z,26.75
2023-02-14T15:29:28.786Z,28.92
2023-02-14T15:31:58.130Z,26.67
2023-02-14T15:34:29.025Z,21.50
2023-02-14T15:36:59.420Z,30.00
2023-02-14T15:39:33.056Z,31.30
2023-02-14T15:42:00.010Z,29.87
2023-02-14T15:44:27.120Z,25.73
2023-02-14T15:47:05.866Z,26.30
2023-02-14T15:49:37.436Z,29.12
2023-02-14T15:52:06.081Z,29.65
2023-02-14T15:54:38.913Z,31.75
2023-02-14T15:57:08.386Z,30.15
2023-02-14T15:59:36.613Z,27.92
2023-02-14T16:02:29.338Z,29.98
2023-02-14T16:05:03.934Z,29.33
2023-02-14T16:07:30.992Z,26.37
2023-02-14T16:10:22.560Z,28.83
2023-02-14T16:13:01.168Z,28.23
2023-02-14T16:15:32.003Z,35.55
2023-02-14T16:17:59.925Z,25.45
2023-02-14T16:20:26.839Z,28.05
2023-02-14T16:22:54.526Z,30.12
2023-02-14T16:25:21.854Z,29.40
2023-02-14T16:27:48.742Z,28.52
2023-02-14T16:30:17.790Z,31.27
2023-02-14T16:32:50.319Z,30.15
2023-02-14T16:35:20.432Z,29.42
2023-02-14T16:37:47.944Z,30.45
2023-02-14T16:40:16.078Z,27.10
2023-02-14T16:42:43.658Z,28.25
2023-02-14T16:45:19.831Z,27.90
2023-02-14T16:47:47.561Z,29.98
2023-02-14T16:50:15.159Z,30.30
2023-02-14T16:52:43.290Z,29.80
2023-02-14T16:55:17.895Z,29.65
2023-02-14T16:57:46.725Z,29.98
2023-02-14T17:00:14.298Z,29.05
2023-02-14T17:02:44.282Z,28.87
2023-02-14T17:05:11.665Z,31.65
2023-02-14T17:07:41.762Z,30.58
2023-02-14T17:10:11.841Z,30.85
2023-02-14T17:12:42.237Z,31.77
2023-02-14T17:15:13.420Z,30.25
2023-02-14T17:17:40.478Z,30.45
2023-02-14T17:20:08.516Z,32.20
2023-02-14T17:22:36.785Z,31.45
2023-02-14T17:25:05.495Z,32.42
2023-02-14T17:27:34.443Z,32.70
2023-02-14T17:30:01.718Z,31.83
2023-02-14T17:32:28.651Z,33.38
2023-02-14T17:34:56.482Z,34.33
2023-02-14T17:37:23.381Z,34.45
2023-02-14T17:42:16.908Z,29.40
2023-02-14T17:47:14.941Z,42.62
2023-02-14T17:49:42.592Z,52.78
2023-02-14T17:52:09.478Z,48.87
2023-02-14T17:54:39.492Z,40.72
2023-02-14T17:57:07.617Z,36.45
2023-02-14T17:59:35.056Z,37.65
2023-02-14T18:02:01.991Z,38.72
2023-02-14T18:04:30.574Z,36.72
2023-02-14T18:06:57.408Z,35.78
2023-02-14T18:09:25.927Z,37.38
2023-02-14T18:11:52.802Z,40.12
2023-02-14T18:16:46.362Z,35.83
2023-02-14T18:21:44.680Z,35.20
2023-02-14T18:24:12.197Z,32.30
2023-02-14T18:26:40.901Z,34.88
2023-02-14T18:29:08.182Z,34.05
2023-02-14T18:31:37.796Z,35.83
2023-02-14T18:34:05.297Z,34.75
2023-02-14T18:36:32.574Z,36.28
2023-02-14T18:38:59.462Z,33.97
2023-02-14T18:43:53.559Z,35.72
2023-02-14T18:46:25.924Z,35.10
2023-02-14T18:48:53.228Z,32.33
2023-02-14T18:51:26.342Z,37.47
2023-02-14T18:53:55.033Z,36.22
2023-02-14T18:56:24.277Z,37.08
2023-02-14T18:58:54.118Z,39.80
2023-02-14T19:01:24.081Z,38.45
2023-02-14T19:03:53.004Z,41.65
2023-02-14T19:06:20.893Z,42.83
2023-02-14T19:08:48.466Z,42.42
2023-02-14T19:11:23.488Z,40.63
2023-02-14T19:13:53.533Z,39.53
2023-02-14T19:16:32.056Z,37.88
2023-02-14T19:18:59.995Z,44.53
2023-02-14T19:21:30.885Z,40.05
2023-02-14T19:23:58.222Z,39.25
2023-02-14T19:26:27.189Z,42.00
2023-02-14T19:29:00.049Z,42.08
2023-02-14T19:31:27.824Z,43.08
2023-02-14T19:33:54.976Z,54.80
2023-02-14T19:36:24.539Z,45.35
2023-02-14T19:38:52.942Z,40.12
2023-02-14T19:41:25.545Z,43.97
2023-02-14T19:43:52.633Z,43.10
2023-02-14T19:46:20.554Z,42.95
2023-02-14T19:48:47.810Z,45.40
2023-02-14T19:51:25.908Z,42.15
2023-02-14T19:53:53.534Z,43.63
2023-02-14T19:56:26.610Z,38.90
2023-02-14T19:58:54.076Z,43.15
2023-02-14T20:01:51.444Z,40.38
2023-02-14T20:04:21.717Z,40.97
2023-02-14T20:06:49.553Z,42.67
2023-02-14T20:09:24.335Z,39.08
2023-02-14T20:11:54.642Z,39.38
2023-02-14T20:14:26.662Z,38.25
2023-02-14T20:16:55.251Z,39.58
2023-02-14T20:19:24.346Z,39.28
2023-02-14T20:21:51.497Z,40.00
2023-02-14T20:24:26.716Z,42.60
2023-02-14T20:26:54.205Z,38.53
2023-02-14T20:29:21.980Z,40.72
2023-02-14T20:31:51.118Z,37.58
2023-02-14T20:34:19.558Z,39.20
2023-02-14T20:36:53.355Z,40.05
2023-02-14T20:39:22.620Z,42.53
2023-02-14T20:41:50.405Z,41.28
2023-02-14T20:44:21.994Z,40.33
2023-02-14T20:46:51.775Z,47.20
2023-02-14T20:49:19.885Z,42.50
2023-02-14T20:51:46.925Z,44.08
2023-02-14T20:54:13.810Z,48.90
2023-02-14T20:59:08.778Z,39.95
2023-02-14T21:01:36.282Z,37.03
2023-02-14T21:04:03.405Z,44.83
2023-02-14T21:06:32.966Z,39.58
2023-02-14T21:09:00.534Z,48.22
2023-02-14T21:11:27.937Z,44.70
2023-02-14T21:13:59.906Z,47.72
2023-02-14T21:16:27.710Z,43.35
2023-02-14T21:18:59.648Z,43.50
2023-02-14T21:21:32.593Z,45.33
2023-02-14T21:24:01.334Z,39.10
2023-02-14T21:26:29.097Z,41.83
2023-02-14T21:28:55.967Z,44.08
2023-02-14T21:33:55.052Z,43.45
2023-02-14T21:36:23.485Z,44.35
2023-02-14T21:38:51.057Z,49.38
2023-02-14T21:41:20.215Z,44.83
2023-02-14T21:43:49.122Z,42.45
2023-02-14T21:46:18.212Z,40.60
2023-02-14T21:49:04.170Z,42.72
2023-02-14T21:51:31.839Z,44.67
2023-02-14T21:54:02.433Z,41.75
2023-02-14T21:56:29.384Z,43.80
2023-02-14T21:58:56.521Z,42.30
2023-02-14T22:01:25.629Z,45.63
2023-02-14T22:03:52.824Z,44.50
2023-02-14T22:06:20.240Z,41.17
2023-02-14T22:08:47.660Z,47.13
2023-02-14T22:11:15.997Z,44.33
2023-02-14T22:13:43.196Z,40.40
2023-02-14T22:16:12.528Z,40.53
2023-02-14T22:18:39.821Z,43.87
2023-02-14T22:21:11.929Z,41.90
2023-02-14T22:23:39.097Z,44.38
2023-02-14T22:26:13.491Z,40.40
2023-02-14T22:28:45.243Z,40.67
2023-02-14T22:31:12.779Z,40.20
2023-02-14T22:33:40.119Z,40.65
2023-02-14T22:36:08.499Z,42.90
2023-02-14T22:38:35.895Z,41.10
2023-02-14T22:41:07.809Z,42.62
2023-02-14T22:43:35.553Z,41.83
2023-02-14T22:46:05.865Z,43.97
2023-02-14T22:48:35.720Z,39.83
2023-02-14T22:51:20.007Z,39.17
2023-02-14T22:53:47.242Z,37.47
2023-02-14T22:56:19.387Z,39.03
2023-02-14T22:58:46.931Z,36.90
2023-02-14T23:01:18.496Z,35.97
2023-02-14T23:03:45.912Z,40.95
2023-02-14T23:06:14.044Z,39.15
2023-02-14T23:08:45.147Z,39.38
2023-02-14T23:11:18.335Z,39.58
2023-02-14T23:14:04.330Z,40.25
2023-02-14T23:16:50.564Z,35.30
2023-02-14T23:19:41.143Z,32.65
2023-02-14T23:22:11.844Z,35.90
2023-02-14T23:24:39.403Z,38.15
2023-02-14T23:27:07.520Z,35.40
2023-02-14T23:29:34.403Z,42.58
2023-02-14T23:34:30.673Z,35.67
2023-02-14T23:36:57.976Z,36.65
2023-02-14T23:39:24.960Z,33.20
2023-02-14T23:41:51.933Z,35.55
2023-02-14T23:44:22.871Z,34.53
2023-02-14T23:46:51.333Z,36.35
2023-02-14T23:49:18.658Z,32.67
2023-02-14T23:51:46.426Z,34.10
2023-02-14T23:54:13.945Z,35.03
2023-02-14T23:56:41.453Z,33.95
2023-02-14T23:59:08.715Z,35.10
